Time;durP1;ratioP1;P1;durP2;ratioP2;P2;SDS_P1;SDS_P2;PMS_P1;PMS_P2;Temp;Humidity;BMP_temperature;BMP_pressure;BME280_temperature;BME280_humidity;BME280_pressure;Samples;Min_cycle;Max_cycle;Signal;HPM_P1;HPM_P2
2023/03/31 00:01:23;;;;;;;4.17;2.03;;;;;;;12.73;95.83;99613.03;5039856;28;20203;-72
2023/03/31 00:03:49;;;;;;;7.80;2.30;;;;;;;12.68;95.97;99608.84;5050050;28;20281;-72
2023/03/31 00:06:18;;;;;;;3.03;1.80;;;;;;;12.65;96.21;99605.44;5035261;28;20191;-73
2023/03/31 00:08:44;;;;;;;4.13;1.87;;;;;;;12.63;96.38;99604.63;5037323;28;20729;-72
2023/03/31 00:11:10;;;;;;;3.73;2.00;;;;;;;12.59;96.41;99594.38;5043363;28;20657;-71
2023/03/31 00:13:36;;;;;;;4.63;1.97;;;;;;;12.59;96.72;99600.41;5039025;28;20207;-72
2023/03/31 00:16:05;;;;;;;4.77;2.03;;;;;;;12.61;96.66;99605.59;5037610;28;20266;-72
2023/03/31 00:18:31;;;;;;;4.03;1.83;;;;;;;12.58;96.81;99605.66;5037060;28;20219;-71
2023/03/31 00:21:23;;;;;;;3.20;1.83;;;;;;;12.57;97.11;99597.00;5034207;28;20198;-71
2023/03/31 00:23:53;;;;;;;2.80;1.47;;;;;;;12.57;97.07;99599.59;5035851;28;20303;-73
2023/03/31 00:26:18;;;;;;;3.50;2.00;;;;;;;12.58;97.04;99601.31;5036053;28;20740;-71
2023/03/31 00:28:44;;;;;;;4.83;1.77;;;;;;;12.59;97.24;99591.78;5041790;28;20186;-73
2023/03/31 00:31:09;;;;;;;4.53;1.93;;;;;;;12.62;96.99;99592.56;5044808;28;20247;-73
2023/03/31 00:33:34;;;;;;;2.60;1.67;;;;;;;12.65;96.78;99592.47;5037741;28;20217;-72
2023/03/31 00:36:04;;;;;;;4.00;2.00;;;;;;;12.69;96.62;99589.78;5034180;28;20689;-71
2023/03/31 00:38:31;;;;;;;4.33;1.80;;;;;;;12.69;96.72;99579.41;5038410;28;20671;-71
2023/03/31 00:40:58;;;;;;;3.53;1.83;;;;;;;12.71;96.57;99572.41;5042952;28;20187;-70
2023/03/31 00:43:34;;;;;;;4.57;2.00;;;;;;;12.73;96.36;99568.88;5037422;28;20293;-71
2023/03/31 00:46:16;;;;;;;3.50;1.87;;;;;;;12.74;96.27;99593.09;5038695;28;20216;-71
2023/03/31 00:48:47;;;;;;;4.83;2.13;;;;;;;12.77;96.42;99611.19;5044587;28;20698;-72
2023/03/31 00:51:13;;;;;;;5.27;2.60;;;;;;;12.83;95.22;99594.56;5039713;28;20185;-71
2023/03/31 00:53:39;;;;;;;4.90;1.93;;;;;;;12.83;95.74;99585.03;5029681;28;20654;-71
2023/03/31 00:56:11;;;;;;;2.93;1.43;;;;;;;12.85;95.48;99580.66;5040407;28;20217;-71
2023/03/31 00:58:42;;;;;;;2.87;1.60;;;;;;;12.84;95.63;99578.97;5045458;28;20239;-72
2023/03/31 01:01:15;;;;;;;3.83;1.83;;;;;;;12.85;95.60;99566.81;5043738;28;20195;-71
2023/03/31 01:03:45;;;;;;;2.70;1.37;;;;;;;12.84;95.75;99565.09;5044702;28;20251;-71
2023/03/31 01:06:13;;;;;;;2.77;1.43;;;;;;;12.79;95.80;99571.28;5038185;28;20669;-71
2023/03/31 01:08:40;;;;;;;2.87;1.33;;;;;;;12.77;95.67;99547.13;5040136;28;20192;-73
2023/03/31 01:11:09;;;;;;;3.93;1.40;;;;;;;12.77;95.43;99554.91;5035339;28;20195;-72
2023/03/31 01:13:37;;;;;;;2.83;1.50;;;;;;;12.76;95.30;99558.41;5049926;28;20575;-72
2023/03/31 01:16:02;;;;;;;3.10;1.60;;;;;;;12.74;95.83;99555.00;5055249;28;20190;-72
2023/03/31 01:18:29;;;;;;;2.37;1.50;;;;;;;12.74;96.28;99556.75;5034251;28;20536;-71
2023/03/31 01:21:29;;;;;;;3.87;1.33;;;;;;;12.72;96.86;99568.91;5033970;28;20252;-72
2023/03/31 01:24:19;;;;;;;4.73;1.50;;;;;;;12.70;97.38;99561.19;5057149;28;20760;-71
2023/03/31 01:26:53;;;;;;;4.23;1.57;;;;;;;12.69;98.06;99566.44;5049463;28;20178;-74
2023/03/31 01:29:39;;;;;;;3.93;1.60;;;;;;;12.64;99.00;99559.63;5046594;28;20194;-70
2023/03/31 01:32:28;;;;;;;4.30;1.40;;;;;;;12.61;100.00;99554.50;5031848;28;20261;-71
2023/03/31 01:35:25;;;;;;;4.03;2.17;;;;;;;12.57;100.00;99549.47;5042266;28;20183;-71
2023/03/31 01:38:27;;;;;;;5.10;1.90;;;;;;;12.50;100.00;99541.84;5047553;28;20214;-71
2023/03/31 01:41:34;;;;;;;4.00;2.00;;;;;;;12.44;100.00;99533.38;5040609;28;20198;-71
2023/03/31 01:44:15;;;;;;;3.60;2.00;;;;;;;12.39;100.00;99524.91;5030653;28;20218;-73
2023/03/31 01:46:51;;;;;;;5.77;2.40;;;;;;;12.34;100.00;99517.22;5031814;28;20196;-71
2023/03/31 01:49:53;;;;;;;7.73;2.83;;;;;;;12.27;100.00;99510.53;5035175;28;20182;-72
2023/03/31 01:52:41;;;;;;;5.00;2.03;;;;;;;12.19;100.00;99505.53;5032392;28;20234;-72
2023/03/31 01:55:28;;;;;;;6.97;2.67;;;;;;;12.11;100.00;99492.78;5039088;28;20689;-72
2023/03/31 01:58:01;;;;;;;4.73;2.20;;;;;;;12.07;100.00;99491.16;5038511;28;20565;-71
2023/03/31 02:00:32;;;;;;;2.90;2.00;;;;;;;12.04;100.00;99486.94;5033294;28;20203;-71
2023/03/31 02:03:20;;;;;;;6.57;2.53;;;;;;;12.01;100.00;99478.41;5028012;28;20775;-72
2023/03/31 02:05:52;;;;;;;6.07;2.37;;;;;;;11.98;100.00;99468.06;5037185;28;20190;-71
2023/03/31 02:08:44;;;;;;;8.20;2.50;;;;;;;11.96;100.00;99462.91;5039687;28;20296;-72
2023/03/31 02:11:09;;;;;;;3.47;2.10;;;;;;;11.90;100.00;99450.97;5032425;28;20191;-72
2023/03/31 02:13:38;;;;;;;3.47;2.43;;;;;;;11.86;100.00;99445.91;5049780;28;20900;-71
2023/03/31 02:16:08;;;;;;;4.27;2.30;;;;;;;11.81;100.00;99427.91;5031290;28;20225;-72
2023/03/31 02:18:36;;;;;;;4.83;2.20;;;;;;;11.78;100.00;99411.59;5038881;28;20203;-72
2023/03/31 02:21:04;;;;;;;4.77;2.07;;;;;;;11.75;100.00;99396.97;5036932;28;20233;-72
2023/03/31 02:23:31;;;;;;;3.40;1.83;;;;;;;11.71;100.00;99388.44;5037869;28;20269;-72
2023/03/31 02:26:22;;;;;;;3.57;2.00;;;;;;;11.69;100.00;99376.41;5038482;28;20725;-73
2023/03/31 02:28:48;;;;;;;3.30;1.73;;;;;;;11.64;100.00;99360.13;5037535;28;20273;-72
2023/03/31 02:31:17;;;;;;;4.17;2.20;;;;;;;11.62;100.00;99351.56;5044942;28;20281;-71
2023/03/31 02:33:42;;;;;;;3.73;2.10;;;;;;;11.57;100.00;99338.72;5031420;28;20212;-72
2023/03/31 02:36:08;;;;;;;2.77;2.07;;;;;;;11.52;100.00;99332.81;5040020;28;20197;-72
2023/03/31 02:38:38;;;;;;;2.70;1.60;;;;;;;11.48;100.00;99328.63;5041901;28;20189;-71
2023/03/31 02:41:03;;;;;;;3.67;2.27;;;;;;;11.44;100.00;99323.53;5037817;28;20282;-71
2023/03/31 02:43:29;;;;;;;6.37;2.40;;;;;;;11.42;100.00;99320.13;5034428;28;20306;-72
2023/03/31 02:45:54;;;;;;;3.27;2.27;;;;;;;11.40;100.00;99315.91;5035281;28;20286;-71
2023/03/31 02:48:22;;;;;;;3.37;2.03;;;;;;;11.37;100.00;99305.63;5037268;28;20678;-72
2023/03/31 02:51:09;;;;;;;3.33;1.93;;;;;;;11.33;100.00;99294.50;5036567;28;20579;-72
2023/03/31 02:54:11;;;;;;;3.27;2.20;;;;;;;11.28;100.00;99271.28;5036110;28;20296;-72
2023/03/31 02:56:42;;;;;;;4.00;2.00;;;;;;;11.25;100.00;99262.75;5033274;28;20233;-72
2023/03/31 02:59:48;;;;;;;2.77;2.00;;;;;;;11.17;100.00;99239.69;5033365;28;20203;-72
2023/03/31 03:02:35;;;;;;;3.20;2.50;;;;;;;11.10;100.00;99233.81;5040366;28;20215;-71
2023/03/31 03:05:33;;;;;;;2.80;2.10;;;;;;;11.07;100.00;99241.66;5040326;28;20194;-71
2023/03/31 03:08:25;;;;;;;3.53;2.40;;;;;;;11.01;100.00;99223.72;5036341;28;20717;-72
2023/03/31 03:10:53;;;;;;;2.93;2.23;;;;;;;10.95;100.00;99217.00;5031651;28;20191;-71
2023/03/31 03:13:21;;;;;;;3.83;2.20;;;;;;;10.93;100.00;99204.97;5043686;28;20210;-72
2023/03/31 03:15:54;;;;;;;3.97;2.27;;;;;;;10.91;100.00;99201.56;5039964;28;20190;-70
2023/03/31 03:18:20;;;;;;;4.27;2.27;;;;;;;10.89;100.00;99201.63;5038166;28;20184;-71
2023/03/31 03:20:48;;;;;;;2.10;1.90;;;;;;;10.85;100.00;99191.41;5028450;28;20723;-71
2023/03/31 03:23:14;;;;;;;5.63;2.40;;;;;;;10.79;100.00;99201.03;5039528;28;20281;-71
2023/03/31 03:25:40;;;;;;;3.33;2.27;;;;;;;10.73;100.00;99193.44;5037410;28;20183;-72
2023/03/31 03:28:06;;;;;;;4.77;2.63;;;;;;;10.65;100.00;99162.59;5041576;28;20193;-71
2023/03/31 03:30:31;;;;;;;3.40;2.77;;;;;;;10.57;100.00;99149.00;5040969;28;20198;-71
2023/03/31 03:32:58;;;;;;;4.03;2.47;;;;;;;10.49;100.00;99130.28;5046634;28;20724;-71
2023/03/31 03:35:24;;;;;;;4.50;2.60;;;;;;;10.43;100.00;99107.16;5038208;28;20599;-72
2023/03/31 03:37:50;;;;;;;2.93;2.40;;;;;;;10.37;100.00;99093.44;5036787;28;20242;-71
2023/03/31 03:40:15;;;;;;;3.83;2.50;;;;;;;10.34;100.00;99088.38;5038889;28;20229;-70
2023/03/31 03:42:41;;;;;;;6.53;3.40;;;;;;;10.34;100.00;99064.25;5030748;28;20495;-70
2023/03/31 03:45:06;;;;;;;3.87;2.50;;;;;;;10.34;100.00;99090.09;5032185;28;20640;-72
2023/03/31 03:47:32;;;;;;;8.13;3.30;;;;;;;10.34;100.00;99090.09;5037505;28;20194;-71
2023/03/31 03:49:57;;;;;;;4.70;2.67;;;;;;;10.35;100.00;99123.72;5034759;28;20183;-72
2023/03/31 03:52:23;;;;;;;4.50;2.97;;;;;;;10.37;100.00;99136.59;5036806;28;20243;-71
2023/03/31 03:54:48;;;;;;;4.77;3.30;;;;;;;10.40;100.00;99159.81;5028418;28;20215;-70
2023/03/31 03:57:13;;;;;;;4.20;3.20;;;;;;;10.46;100.00;99158.81;5027513;28;20230;-72
2023/03/31 03:59:39;;;;;;;3.47;3.07;;;;;;;10.46;100.00;99161.38;5028492;28;20186;-71
2023/03/31 04:02:04;;;;;;;4.57;3.10;;;;;;;10.46;100.00;99153.63;5033468;28;20244;-71
2023/03/31 04:04:29;;;;;;;4.67;2.50;;;;;;;10.47;100.00;99157.91;5030389;28;20673;-71
2023/03/31 04:06:54;;;;;;;4.10;2.93;;;;;;;10.50;100.00;99150.09;5035048;28;20193;-72
2023/03/31 04:09:20;;;;;;;3.63;2.27;;;;;;;10.50;100.00;99148.31;5033555;28;20199;-71
2023/03/31 04:11:45;;;;;;;5.20;2.47;;;;;;;10.49;100.00;99141.44;5036299;28;20297;-71
2023/03/31 04:14:10;;;;;;;5.27;2.80;;;;;;;10.49;100.00;99130.28;5032933;28;20206;-71
2023/03/31 04:16:37;;;;;;;4.43;2.70;;;;;;;10.51;100.00;99131.09;5035113;28;20277;-72
2023/03/31 04:19:03;;;;;;;4.83;2.83;;;;;;;10.52;100.00;99128.44;5037252;28;20219;-71
2023/03/31 04:21:33;;;;;;;4.00;2.87;;;;;;;10.57;100.00;99120.56;5031346;28;20191;-73
2023/03/31 04:24:03;;;;;;;4.23;2.60;;;;;;;10.59;100.00;99107.59;5034685;28;20219;-71
2023/03/31 04:26:37;;;;;;;4.93;3.20;;;;;;;10.61;100.00;99103.19;5037638;28;20817;-71
2023/03/31 04:29:04;;;;;;;6.10;3.10;;;;;;;10.61;100.00;99098.88;5028780;28;20665;-72
2023/03/31 04:31:30;;;;;;;4.80;3.27;;;;;;;10.61;100.00;99108.38;5033763;28;20191;-71
2023/03/31 04:34:01;;;;;;;5.47;3.00;;;;;;;10.62;100.00;99108.34;5035435;28;20183;-71
2023/03/31 04:36:27;;;;;;;5.00;2.90;;;;;;;10.62;100.00;99108.34;5037667;28;21978;-71
2023/03/31 04:38:53;;;;;;;3.73;2.80;;;;;;;10.62;100.00;99112.66;5030826;28;20191;-71
2023/03/31 04:41:19;;;;;;;4.10;2.50;;;;;;;10.65;100.00;99108.25;5035242;28;20255;-71
2023/03/31 04:43:45;;;;;;;4.10;2.83;;;;;;;10.68;100.00;99108.16;5031977;28;20272;-71
2023/03/31 04:46:10;;;;;;;5.70;3.13;;;;;;;10.70;100.00;99128.81;5029836;28;20326;-72
2023/03/31 04:48:36;;;;;;;3.67;2.30;;;;;;;10.72;100.00;99133.94;5031621;28;20277;-71
2023/03/31 04:51:01;;;;;;;3.03;2.70;;;;;;;10.73;100.00;99148.59;5032417;28;20261;-71
2023/03/31 04:53:28;;;;;;;4.57;2.57;;;;;;;10.74;100.00;99158.88;5032409;28;20213;-72
2023/03/31 04:55:53;;;;;;;5.40;2.57;;;;;;;10.75;100.00;99164.91;5029960;28;20199;-71
2023/03/31 04:58:18;;;;;;;4.43;2.83;;;;;;;10.78;100.00;99168.25;5035591;28;20554;-72
2023/03/31 05:00:44;;;;;;;4.60;2.33;;;;;;;10.79;100.00;99151.84;5038503;28;20575;-71
2023/03/31 05:03:09;;;;;;;4.80;2.53;;;;;;;10.81;100.00;99151.81;5032925;28;20687;-71
2023/03/31 05:05:35;;;;;;;4.57;2.93;;;;;;;10.81;100.00;99154.41;5038236;28;20203;-72
2023/03/31 05:08:01;;;;;;;5.27;2.60;;;;;;;10.81;100.00;99152.66;5035702;28;20280;-72
2023/03/31 05:10:26;;;;;;;5.00;2.77;;;;;;;10.81;100.00;99131.94;5033820;28;20263;-72
2023/03/31 05:12:52;;;;;;;4.43;2.90;;;;;;;10.81;100.00;99116.44;5037337;28;20585;-71
2023/03/31 05:15:17;;;;;;;4.40;2.90;;;;;;;10.81;100.00;99097.47;5035154;28;20186;-71
2023/03/31 05:17:43;;;;;;;7.07;3.10;;;;;;;10.80;100.00;99085.44;5041144;28;21057;-72
2023/03/31 05:20:09;;;;;;;5.20;3.13;;;;;;;10.79;100.00;99079.38;5039272;28;20246;-71
2023/03/31 05:22:36;;;;;;;6.57;3.90;;;;;;;10.77;100.00;99064.81;5035811;28;20510;-72
2023/03/31 05:25:03;;;;;;;5.07;3.50;;;;;;;10.77;100.00;99070.81;5036862;28;20249;-72
2023/03/31 05:27:28;;;;;;;5.73;3.53;;;;;;;10.77;100.00;99078.56;5039888;28;20651;-71
2023/03/31 05:29:53;;;;;;;4.07;3.30;;;;;;;10.78;100.00;99082.88;5039630;28;20285;-73
2023/03/31 05:32:19;;;;;;;4.03;3.30;;;;;;;10.79;100.00;99081.13;5042047;28;20207;-72
2023/03/31 05:34:45;;;;;;;6.70;3.40;;;;;;;10.80;100.00;99070.72;5038954;28;20181;-70
2023/03/31 05:37:10;;;;;;;7.90;4.10;;;;;;;10.81;100.00;99061.25;5049068;28;20242;-73
2023/03/31 05:39:35;;;;;;;4.77;3.80;;;;;;;10.80;100.00;99055.19;5060988;28;20185;-72
2023/03/31 05:42:01;;;;;;;6.50;4.20;;;;;;;10.80;100.00;99039.69;5034648;28;20910;-71
2023/03/31 05:44:27;;;;;;;6.70;3.93;;;;;;;10.82;100.00;99032.72;5035836;28;20216;-72
2023/03/31 05:46:53;;;;;;;7.80;4.70;;;;;;;10.84;100.00;99035.25;5032654;28;20230;-71
2023/03/31 05:49:18;;;;;;;5.97;4.17;;;;;;;10.86;100.00;99037.81;5039409;28;20846;-71
2023/03/31 05:51:44;;;;;;;5.10;4.23;;;;;;;10.90;100.00;99029.03;5033111;28;20213;-72
2023/03/31 05:54:09;;;;;;;6.33;4.57;;;;;;;10.92;100.00;99029.84;5032261;28;20189;-71
2023/03/31 05:56:35;;;;;;;11.43;9.83;;;;;;;10.92;100.00;99025.53;5036173;28;20913;-72
2023/03/31 05:59:00;;;;;;;10.77;7.53;;;;;;;10.91;100.00;99025.56;5033421;28;20187;-73
2023/03/31 06:01:26;;;;;;;10.37;8.53;;;;;;;10.88;100.00;99031.69;5031552;28;20206;-73
2023/03/31 06:03:52;;;;;;;11.70;10.50;;;;;;;10.86;100.00;99043.81;5033928;28;20216;-74
2023/03/31 06:06:17;;;;;;;10.33;9.33;;;;;;;10.86;100.00;99049.00;5032081;28;20267;-74
2023/03/31 06:08:44;;;;;;;7.60;6.87;;;;;;;10.88;100.00;99047.22;5031954;28;20274;-73
2023/03/31 06:11:12;;;;;;;7.90;6.57;;;;;;;10.89;100.00;99032.53;5031890;28;20218;-73
2023/03/31 06:13:38;;;;;;;7.67;6.37;;;;;;;10.92;100.00;99025.53;5034159;28;20211;-74
2023/03/31 06:16:04;;;;;;;11.43;6.83;;;;;;;10.97;100.00;98983.97;5039138;28;20807;-74
2023/03/31 06:18:32;;;;;;;7.80;6.20;;;;;;;10.95;100.00;98998.69;5032566;28;20188;-75
2023/03/31 06:20:58;;;;;;;9.50;5.83;;;;;;;10.92;100.00;98991.88;5036268;28;20652;-74
2023/03/31 06:23:24;;;;;;;8.70;6.20;;;;;;;10.90;100.00;98978.13;5031282;28;20280;-72
2023/03/31 06:25:52;;;;;;;7.90;6.27;;;;;;;10.91;100.00;98981.53;5035057;28;20195;-74
2023/03/31 06:28:20;;;;;;;8.03;5.87;;;;;;;10.90;100.00;98980.72;5034897;28;20598;-74
2023/03/31 06:30:46;;;;;;;7.33;5.73;;;;;;;10.92;100.00;98976.34;5033053;28;20278;-73
2023/03/31 06:33:12;;;;;;;8.47;5.27;;;;;;;10.95;100.00;98976.25;5030755;28;20215;-73
2023/03/31 06:35:38;;;;;;;7.93;5.53;;;;;;;10.98;100.00;98978.72;5034853;28;21199;-75
2023/03/31 06:38:04;;;;;;;8.07;5.40;;;;;;;11.02;100.00;98982.09;5027540;28;20190;-73
2023/03/31 06:40:29;;;;;;;6.70;5.90;;;;;;;11.04;100.00;98982.84;5028705;28;20195;-73
2023/03/31 06:42:55;;;;;;;7.23;5.43;;;;;;;11.05;100.00;98973.34;5031079;28;20219;-73
2023/03/31 06:45:21;;;;;;;6.50;4.80;;;;;;;11.04;100.00;98959.56;5043517;28;20193;-74
2023/03/31 06:47:46;;;;;;;4.97;4.20;;;;;;;11.08;100.00;98929.25;5033544;28;20669;-72
2023/03/31 06:50:12;;;;;;;4.90;3.93;;;;;;;11.05;100.00;98864.63;5031614;28;20192;-74
2023/03/31 06:52:39;;;;;;;5.70;4.30;;;;;;;11.07;100.00;98937.91;5034981;28;20202;-73
2023/03/31 06:55:05;;;;;;;5.20;3.83;;;;;;;11.15;100.00;98946.25;5051640;28;20200;-73
2023/03/31 06:57:32;;;;;;;5.70;3.80;;;;;;;11.27;100.00;98948.44;5031759;28;20186;-72
2023/03/31 06:59:58;;;;;;;5.03;3.20;;;;;;;11.52;100.00;98947.63;5029248;28;20563;-73
2023/03/31 07:02:23;;;;;;;4.53;3.33;;;;;;;11.69;100.00;98954.81;5033241;28;20229;-72
2023/03/31 07:04:48;;;;;;;5.17;2.97;;;;;;;11.74;100.00;98958.09;5031893;28;20204;-74
2023/03/31 07:07:14;;;;;;;3.83;2.90;;;;;;;11.78;100.00;98964.00;5035391;28;20216;-74
2023/03/31 07:09:39;;;;;;;3.80;2.50;;;;;;;11.77;100.00;98970.09;5038040;28;20184;-73
2023/03/31 07:12:05;;;;;;;3.27;2.20;;;;;;;11.82;100.00;98965.59;5031018;28;20235;-73
2023/03/31 07:14:31;;;;;;;3.87;2.20;;;;;;;11.89;100.00;98968.81;5041071;28;20185;-73
2023/03/31 07:16:57;;;;;;;6.83;2.80;;;;;;;11.97;100.00;98978.91;5039542;28;20287;-74
2023/03/31 07:19:22;;;;;;;59.33;14.97;;;;;;;12.09;100.00;98986.28;5039132;28;20941;-75
2023/03/31 07:21:47;;;;;;;3.60;1.93;;;;;;;12.26;100.00;98980.47;5036305;28;20207;-73
2023/03/31 07:24:13;;;;;;;4.80;1.73;;;;;;;12.42;100.00;98966.91;5039426;28;20771;-73
2023/03/31 07:26:38;;;;;;;2.17;1.77;;;;;;;12.55;100.00;98967.31;5025850;28;20189;-75
2023/03/31 07:29:04;;;;;;;2.40;1.77;;;;;;;12.64;100.00;98969.53;5044290;28;20190;-73
2023/03/31 07:31:29;;;;;;;2.53;1.50;;;;;;;12.73;100.00;98965.75;5037888;28;20210;-73
2023/03/31 07:33:54;;;;;;;2.30;1.50;;;;;;;12.75;100.00;98967.41;5035151;28;20561;-74
2023/03/31 07:36:20;;;;;;;3.57;1.90;;;;;;;12.71;100.00;98977.94;5039700;28;20305;-73
2023/03/31 07:38:47;;;;;;;2.27;1.47;;;;;;;12.67;100.00;98977.22;5038331;28;20199;-73
2023/03/31 07:41:16;;;;;;;3.00;1.37;;;;;;;12.64;100.00;98977.31;5034020;28;20193;-76
2023/03/31 07:43:42;;;;;;;1.70;1.20;;;;;;;12.57;100.00;98961.16;5026515;28;20272;-73
2023/03/31 07:46:14;;;;;;;3.10;1.57;;;;;;;12.54;100.00;98982.03;5033226;28;21017;-73
2023/03/31 07:48:40;;;;;;;10.53;2.60;;;;;;;12.56;100.00;98975.03;5027123;28;20194;-73
2023/03/31 07:51:05;;;;;;;20.67;5.07;;;;;;;12.66;100.00;98975.53;5032575;28;20688;-73
2023/03/31 07:53:31;;;;;;;19.07;4.70;;;;;;;12.76;100.00;98981.22;5028832;28;20275;-74
2023/03/31 07:55:56;;;;;;;6.30;2.20;;;;;;;12.82;100.00;98991.38;5029590;28;20725;-73
2023/03/31 07:58:21;;;;;;;5.50;1.93;;;;;;;12.95;100.00;98969.19;5029979;28;20199;-74
2023/03/31 08:00:47;;;;;;;2.50;1.60;;;;;;;13.05;99.50;98974.00;5028102;28;20184;-73
2023/03/31 08:03:12;;;;;;;10.97;3.63;;;;;;;13.27;99.56;98964.44;5029995;28;20225;-74
2023/03/31 08:05:38;;;;;;;21.33;5.70;;;;;;;13.61;99.10;98961.38;5034619;28;20340;-74
2023/03/31 08:08:04;;;;;;;7.10;2.87;;;;;;;14.13;97.58;98960.84;5037854;28;20217;-73
2023/03/31 08:10:29;;;;;;;4.27;1.50;;;;;;;14.56;95.31;98964.06;5034072;28;20187;-75
2023/03/31 08:12:54;;;;;;;3.27;1.47;;;;;;;14.88;94.33;98947.84;5032373;28;20736;-74
2023/03/31 08:15:21;;;;;;;3.67;1.80;;;;;;;14.97;94.02;98960.47;5032617;28;20194;-73
2023/03/31 08:17:46;;;;;;;3.00;1.60;;;;;;;14.87;95.20;98951.38;5040554;28;20187;-74
2023/03/31 08:20:12;;;;;;;2.93;1.63;;;;;;;14.66;94.96;98958.44;5028738;28;20206;-75
2023/03/31 08:22:38;;;;;;;5.10;1.90;;;;;;;14.47;95.93;98961.88;5037322;28;20206;-73
2023/03/31 08:25:06;;;;;;;56.80;10.93;;;;;;;14.35;96.82;98968.53;5033015;28;20211;-75
2023/03/31 08:27:37;;;;;;;7.23;2.40;;;;;;;14.39;96.32;98951.81;5035052;28;20194;-74
2023/03/31 08:30:03;;;;;;;2.23;1.50;;;;;;;14.64;94.98;98961.13;5031215;28;20656;-74
2023/03/31 08:32:32;;;;;;;5.27;2.53;;;;;;;14.84;95.20;98969.75;5033738;28;20320;-74
2023/03/31 08:34:58;;;;;;;2.73;1.40;;;;;;;14.85;94.21;98961.03;5033517;28;20191;-74
2023/03/31 08:37:24;;;;;;;14.80;3.23;;;;;;;14.94;94.30;98963.19;5036075;28;20202;-76
2023/03/31 08:39:51;;;;;;;61.40;14.10;;;;;;;15.18;94.52;98958.56;5044936;28;20195;-74
2023/03/31 08:42:26;;;;;;;3.47;1.77;;;;;;;15.26;92.78;98952.09;5028214;28;20222;-75
2023/03/31 08:45:09;;;;;;;1.87;1.30;;;;;;;15.23;93.41;98951.34;5033163;28;20640;-75
2023/03/31 08:47:36;;;;;;;16.13;3.70;;;;;;;15.30;93.78;98958.88;5034194;28;20271;-74
2023/03/31 08:50:12;;;;;;;27.17;6.40;;;;;;;15.42;93.65;98954.81;5034439;28;20690;-74
2023/03/31 08:52:54;;;;;;;8.20;2.73;;;;;;;15.52;92.03;98949.03;5034079;28;20206;-74
2023/03/31 08:55:26;;;;;;;48.83;7.07;;;;;;;15.60;92.05;98958.22;5031969;28;20183;-74
2023/03/31 08:58:00;;;;;;;29.10;6.27;;;;;;;15.60;90.35;98950.41;5035402;28;20202;-75
2023/03/31 09:00:58;;;;;;;68.90;11.43;;;;;;;15.63;89.99;98945.88;5037989;28;20572;-75
2023/03/31 09:03:57;;;;;;;8.53;2.90;;;;;;;15.69;90.73;98947.31;5032557;28;20325;-75
2023/03/31 09:06:37;;;;;;;3.40;1.70;;;;;;;15.67;90.69;98943.94;5034694;28;20196;-73
2023/03/31 09:09:08;;;;;;;2.70;1.53;;;;;;;15.61;91.53;98934.69;5031166;28;20198;-75
2023/03/31 09:11:39;;;;;;;4.83;1.77;;;;;;;15.55;89.70;98927.19;5034280;28;20584;-74
2023/03/31 09:14:23;;;;;;;1.90;1.47;;;;;;;15.41;90.54;98927.88;5042925;28;20591;-75
2023/03/31 09:17:17;;;;;;;2.97;1.47;;;;;;;15.41;90.23;98921.84;5047879;28;20192;-76
2023/03/31 09:20:09;;;;;;;2.93;1.50;;;;;;;15.49;89.43;98912.72;5030345;28;22610;-75
2023/03/31 09:22:41;;;;;;;3.23;1.60;;;;;;;15.45;92.07;98936.38;5039072;28;20214;-74
2023/03/31 09:25:26;;;;;;;2.60;1.67;;;;;;;15.44;94.05;98927.72;5036128;28;21976;-74
2023/03/31 09:27:55;;;;;;;4.53;1.93;;;;;;;15.41;94.38;98927.06;5043429;28;20202;-74
2023/03/31 09:30:30;;;;;;;5.67;1.70;;;;;;;15.41;93.91;98921.84;5033059;28;20187;-73
2023/03/31 09:33:16;;;;;;;3.60;1.53;;;;;;;15.16;95.45;98913.50;5042179;28;20203;-75
2023/03/31 09:35:41;;;;;;;3.17;1.83;;;;;;;14.85;97.60;98911.53;5032120;28;20187;-75
2023/03/31 09:38:10;;;;;;;6.73;1.97;;;;;;;14.61;97.82;98907.41;5034469;28;20202;-73
2023/03/31 09:40:36;;;;;;;4.33;1.70;;;;;;;14.48;98.45;98901.97;5046108;28;20202;-74
2023/03/31 09:43:07;;;;;;;4.37;2.13;;;;;;;14.47;100.00;98891.59;5030627;28;20214;-73
2023/03/31 09:45:34;;;;;;;16.30;4.97;;;;;;;14.57;100.00;98879.00;5036881;28;20269;-75
2023/03/31 09:48:05;;;;;;;55.77;12.97;;;;;;;14.61;100.00;98899.59;5036835;28;20182;-73
2023/03/31 09:50:36;;;;;;;18.57;6.13;;;;;;;14.54;100.00;98892.16;5034084;28;20188;-74
2023/03/31 09:53:04;;;;;;;38.80;8.93;;;;;;;14.44;100.00;98892.59;5033701;28;20241;-72
2023/03/31 09:55:57;;;;;;;31.97;8.17;;;;;;;14.35;100.00;98905.19;5039067;28;20190;-73
2023/03/31 09:58:23;;;;;;;13.07;4.60;;;;;;;14.29;100.00;98898.53;5037052;28;20266;-72
2023/03/31 10:01:10;;;;;;;5.23;2.30;;;;;;;14.39;100.00;98888.53;5043134;28;20237;-74
2023/03/31 10:03:51;;;;;;;20.13;6.03;;;;;;;14.57;98.90;98885.06;5036036;28;20215;-72
2023/03/31 10:06:17;;;;;;;23.50;6.70;;;;;;;14.89;96.82;98876.63;5030045;28;20191;-72
2023/03/31 10:08:48;;;;;;;10.77;3.23;;;;;;;15.32;94.07;98877.06;5039386;28;20190;-72
2023/03/31 10:11:14;;;;;;;28.20;6.67;;;;;;;15.69;91.55;98872.53;5030157;28;20318;-72
2023/03/31 10:13:57;;;;;;;28.70;8.10;;;;;;;16.10;90.70;98865.22;5044067;28;20700;-72
2023/03/31 10:16:27;;;;;;;6.63;3.10;;;;;;;16.48;88.79;98866.63;5040247;28;20178;-73
2023/03/31 10:18:52;;;;;;;6.93;2.40;;;;;;;16.72;86.90;98867.00;5035563;28;20612;-73
2023/03/31 10:21:27;;;;;;;5.10;2.03;;;;;;;16.90;85.57;98872.94;5042072;28;20194;-71
2023/03/31 10:23:54;;;;;;;3.70;2.03;;;;;;;16.96;85.41;98851.72;5037862;28;20208;-72
2023/03/31 10:26:26;;;;;;;3.83;1.67;;;;;;;17.15;84.37;98855.84;5033928;28;20191;-72
2023/03/31 10:28:54;;;;;;;6.87;2.30;;;;;;;17.23;83.68;98848.38;5029520;28;20254;-73
2023/03/31 10:31:23;;;;;;;4.10;1.93;;;;;;;17.26;82.84;98837.75;5040771;28;20735;-73
2023/03/31 10:33:50;;;;;;;5.30;2.23;;;;;;;17.30;82.78;98864.53;5036121;28;20339;-72
2023/03/31 10:36:25;;;;;;;6.73;2.60;;;;;;;17.32;80.98;98844.38;5036127;28;20598;-72
2023/03/31 10:38:51;;;;;;;5.93;2.20;;;;;;;16.94;80.28;98892.72;5033539;28;20557;-73
2023/03/31 10:41:23;;;;;;;7.43;1.80;;;;;;;16.42;82.54;98930.47;5035436;28;20190;-72
2023/03/31 10:43:51;;;;;;;2.93;1.60;;;;;;;15.82;84.57;98924.06;5034933;28;20579;-73
2023/03/31 10:46:17;;;;;;;1.87;1.40;;;;;;;15.29;86.01;98944.16;5033823;28;20205;-72
2023/03/31 10:48:44;;;;;;;3.43;1.40;;;;;;;14.91;86.86;98935.53;5034887;28;20570;-73
2023/03/31 10:51:18;;;;;;;4.40;3.10;;;;;;;14.58;87.21;98951.84;5040852;28;20192;-73
2023/03/31 10:53:52;;;;;;;3.43;1.53;;;;;;;14.29;87.87;98959.22;5035594;28;20555;-74
2023/03/31 10:56:23;;;;;;;3.90;1.87;;;;;;;14.12;88.84;98954.78;5035460;28;20565;-73
2023/03/31 10:58:58;;;;;;;3.63;1.27;;;;;;;13.97;88.67;98982.34;5034612;28;20191;-73
2023/03/31 11:01:24;;;;;;;3.10;1.07;;;;;;;13.90;88.96;98980.06;5033715;28;20202;-73
2023/03/31 11:04:20;;;;;;;1.07;0.70;;;;;;;13.70;90.62;98951.41;5034685;28;20275;-72
2023/03/31 11:07:02;;;;;;;1.30;0.40;;;;;;;13.46;92.30;98911.72;5035765;28;20191;-73
2023/03/31 11:09:49;;;;;;;1.03;0.47;;;;;;;13.25;92.77;98914.31;5034462;28;20301;-73
2023/03/31 11:12:37;;;;;;;2.43;1.20;;;;;;;13.13;93.27;98948.59;5049528;28;20233;-72
2023/03/31 11:15:06;;;;;;;2.60;0.60;;;;;;;13.05;93.82;98941.09;5034519;28;20198;-73
2023/03/31 11:18:00;;;;;;;1.37;0.70;;;;;;;13.05;94.49;98935.91;5031541;28;20184;-73
2023/03/31 11:20:50;;;;;;;1.53;0.40;;;;;;;13.18;94.93;98938.00;5035554;28;20846;-72
2023/03/31 11:23:32;;;;;;;1.13;0.60;;;;;;;13.46;94.86;98935.09;5031204;28;20212;-73
2023/03/31 11:26:05;;;;;;;1.53;0.63;;;;;;;13.70;93.59;98933.19;5034386;28;20193;-73
2023/03/31 11:29:11;;;;;;;1.53;0.50;;;;;;;14.15;92.94;98926.03;5036579;28;20184;-72
2023/03/31 11:31:55;;;;;;;1.33;0.50;;;;;;;14.69;91.13;98916.66;5037584;28;20189;-72
2023/03/31 11:34:55;;;;;;;0.90;0.50;;;;;;;15.24;89.58;98893.09;5035586;28;20276;-72
2023/03/31 11:37:40;;;;;;;0.80;0.40;;;;;;;15.59;87.21;98894.78;5030884;28;20187;-72
2023/03/31 11:40:20;;;;;;;2.67;0.60;;;;;;;15.73;85.55;98898.47;5037323;28;20182;-73
2023/03/31 11:43:01;;;;;;;2.20;0.63;;;;;;;15.73;84.50;98901.09;5031801;28;20230;-72
2023/03/31 11:45:34;;;;;;;1.30;0.80;;;;;;;15.68;84.61;98898.69;5039925;28;20191;-73